sensor_id;sensor_type;location;lat;lon;timestamp;pressure;altitude;pressure_sealevel;temperature;humidity
21826;BME280;11075;47.944;11.776;2022-10-26T00:01:02;94843.59;;;17.38;23.37
21826;BME280;11075;47.944;11.776;2022-10-26T00:03:29;94835.72;;;16.82;24.04
21826;BME280;11075;47.944;11.776;2022-10-26T00:08:34;94824.94;;;16.93;24.32
21826;BME280;11075;47.944;11.776;2022-10-26T00:11:01;94846.38;;;18.07;22.67
21826;BME280;11075;47.944;11.776;2022-10-26T00:13:28;94815.16;;;16.84;24.09
21826;BME280;11075;47.944;11.776;2022-10-26T00:15:55;94803.66;;;15.94;25.45
21826;BME280;11075;47.944;11.776;2022-10-26T00:18:23;94811.09;;;17.12;23.70
21826;BME280;11075;47.944;11.776;2022-10-26T00:20:50;94824.25;;;17.51;23.81
21826;BME280;11075;47.944;11.776;2022-10-26T00:23:17;94828.63;;;18.49;22.57
21826;BME280;11075;47.944;11.776;2022-10-26T00:25:43;94804.44;;;17.06;23.98
21826;BME280;11075;47.944;11.776;2022-10-26T00:28:10;94821.22;;;18.39;22.83
21826;BME280;11075;47.944;11.776;2022-10-26T00:30:38;94825.94;;;18.56;22.36
21826;BME280;11075;47.944;11.776;2022-10-26T00:33:05;94793.50;;;16.99;24.31
21826;BME280;11075;47.944;11.776;2022-10-26T00:35:32;94764.41;;;16.59;24.85
21826;BME280;11075;47.944;11.776;2022-10-26T00:38:13;94752.63;;;16.10;25.67
21826;BME280;11075;47.944;11.776;2022-10-26T00:40:40;94775.50;;;17.35;24.04
21826;BME280;11075;47.944;11.776;2022-10-26T00:45:46;94763.06;;;17.34;24.58
21826;BME280;11075;47.944;11.776;2022-10-26T00:48:25;94717.47;;;15.05;27.03
21826;BME280;11075;47.944;11.776;2022-10-26T00:50:55;94700.91;;;13.57;29.32
21826;BME280;11075;47.944;11.776;2022-10-26T00:53:25;94763.03;;;18.03;23.69
21826;BME280;11075;47.944;11.776;2022-10-26T00:55:54;94767.91;;;17.07;24.66
21826;BME280;11075;47.944;11.776;2022-10-26T00:58:21;94750.78;;;14.79;27.92
21826;BME280;11075;47.944;11.776;2022-10-26T01:00:48;94775.97;;;15.29;27.22
21826;BME280;11075;47.944;11.776;2022-10-26T01:03:17;94765.97;;;14.18;28.34
21826;BME280;11075;47.944;11.776;2022-10-26T01:05:45;94775.75;;;16.31;25.87
21826;BME280;11075;47.944;11.776;2022-10-26T01:08:15;94743.78;;;13.35;29.39
21826;BME280;11075;47.944;11.776;2022-10-26T01:10:43;94761.34;;;16.27;26.41
21826;BME280;11075;47.944;11.776;2022-10-26T01:13:11;94812.38;;;18.85;23.03
21826;BME280;11075;47.944;11.776;2022-10-26T01:18:21;94777.94;;;16.96;24.69
21826;BME280;11075;47.944;11.776;2022-10-26T01:32:15;94814.69;;;17.74;24.45
21826;BME280;11075;47.944;11.776;2022-10-26T01:35:02;94825.63;;;17.85;23.94
21826;BME280;11075;47.944;11.776;2022-10-26T01:37:40;94836.91;;;18.85;23.09
21826;BME280;11075;47.944;11.776;2022-10-26T01:40:18;94798.69;;;16.70;25.88
21826;BME280;11075;47.944;11.776;2022-10-26T01:42:50;94816.06;;;17.51;24.65
21826;BME280;11075;47.944;11.776;2022-10-26T01:45:19;94799.97;;;16.83;25.58
21826;BME280;11075;47.944;11.776;2022-10-26T01:47:46;94773.53;;;16.06;26.37
21826;BME280;11075;47.944;11.776;2022-10-26T01:50:15;94744.81;;;15.19;28.40
21826;BME280;11075;47.944;11.776;2022-10-26T01:52:42;94760.25;;;14.88;28.11
21826;BME280;11075;47.944;11.776;2022-10-26T01:58:19;94772.34;;;16.78;25.68
21826;BME280;11075;47.944;11.776;2022-10-26T02:04:31;94784.22;;;17.07;25.43
21826;BME280;11075;47.944;11.776;2022-10-26T02:10:39;94764.44;;;15.62;27.44
21826;BME280;11075;47.944;11.776;2022-10-26T02:13:06;94764.41;;;17.06;25.88
21826;BME280;11075;47.944;11.776;2022-10-26T02:15:53;94747.53;;;16.46;26.70
21826;BME280;11075;47.944;11.776;2022-10-26T02:18:30;94787.19;;;18.04;24.40
21826;BME280;11075;47.944;11.776;2022-10-26T02:21:05;94766.84;;;17.84;24.66
21826;BME280;11075;47.944;11.776;2022-10-26T02:23:36;94767.44;;;16.53;26.63
21826;BME280;11075;47.944;11.776;2022-10-26T02:26:07;94777.09;;;16.47;27.07
21826;BME280;11075;47.944;11.776;2022-10-26T02:28:42;94822.03;;;18.50;24.42
21826;BME280;11075;47.944;11.776;2022-10-26T02:31:12;94766.63;;;15.52;27.47
21826;BME280;11075;47.944;11.776;2022-10-26T02:33:45;94786.19;;;17.65;25.28
21826;BME280;11075;47.944;11.776;2022-10-26T02:36:24;94800.66;;;17.14;25.96
21826;BME280;11075;47.944;11.776;2022-10-26T02:38:54;94811.84;;;17.09;25.74
21826;BME280;11075;47.944;11.776;2022-10-26T02:41:24;94816.94;;;16.33;27.32
21826;BME280;11075;47.944;11.776;2022-10-26T02:44:01;94796.50;;;15.52;27.84
21826;BME280;11075;47.944;11.776;2022-10-26T02:46:30;94833.03;;;17.88;24.94
21826;BME280;11075;47.944;11.776;2022-10-26T02:48:57;94799.84;;;15.42;27.88
21826;BME280;11075;47.944;11.776;2022-10-26T02:54:17;94817.38;;;15.75;27.45
21826;BME280;11075;47.944;11.776;2022-10-26T02:59:14;94748.72;;;13.49;30.84
21826;BME280;11075;47.944;11.776;2022-10-26T03:01:43;94801.56;;;16.88;26.26
21826;BME280;11075;47.944;11.776;2022-10-26T03:04:11;94792.53;;;16.77;26.72
21826;BME280;11075;47.944;11.776;2022-10-26T03:06:37;94780.13;;;15.45;28.55
21826;BME280;11075;47.944;11.776;2022-10-26T03:09:04;94798.13;;;16.54;27.23
21826;BME280;11075;47.944;11.776;2022-10-26T03:11:31;94776.88;;;15.96;27.91
21826;BME280;11075;47.944;11.776;2022-10-26T03:13:58;94752.22;;;14.96;29.55
21826;BME280;11075;47.944;11.776;2022-10-26T03:16:26;94794.13;;;16.81;26.50
21826;BME280;11075;47.944;11.776;2022-10-26T03:18:53;94741.56;;;14.83;29.76
21826;BME280;11075;47.944;11.776;2022-10-26T03:21:19;94716.94;;;14.46;30.36
21826;BME280;11075;47.944;11.776;2022-10-26T03:23:46;94750.88;;;15.95;28.02
21826;BME280;11075;47.944;11.776;2022-10-26T03:26:13;94783.44;;;17.58;25.89
21826;BME280;11075;47.944;11.776;2022-10-26T03:28:41;94756.47;;;16.87;26.83
21826;BME280;11075;47.944;11.776;2022-10-26T03:31:08;94772.41;;;17.36;26.29
21826;BME280;11075;47.944;11.776;2022-10-26T03:33:34;94744.63;;;16.25;27.83
21826;BME280;11075;47.944;11.776;2022-10-26T03:36:04;94737.63;;;15.90;28.61
21826;BME280;11075;47.944;11.776;2022-10-26T03:38:31;94737.84;;;16.89;27.25
21826;BME280;11075;47.944;11.776;2022-10-26T03:40:58;94748.66;;;16.82;27.22
21826;BME280;11075;47.944;11.776;2022-10-26T03:43:26;94758.41;;;17.38;26.83
21826;BME280;11075;47.944;11.776;2022-10-26T03:45:53;94749.19;;;16.98;27.30
21826;BME280;11075;47.944;11.776;2022-10-26T03:48:19;94764.66;;;17.42;26.66
21826;BME280;11075;47.944;11.776;2022-10-26T03:50:46;94757.94;;;17.25;27.17
21826;BME280;11075;47.944;11.776;2022-10-26T03:53:13;94742.75;;;16.73;27.21
21826;BME280;11075;47.944;11.776;2022-10-26T03:55:43;94761.91;;;17.38;26.70
21826;BME280;11075;47.944;11.776;2022-10-26T03:58:10;94780.31;;;18.46;25.57
21826;BME280;11075;47.944;11.776;2022-10-26T04:00:37;94774.63;;;17.82;26.23
21826;BME280;11075;47.944;11.776;2022-10-26T04:03:04;94796.75;;;19.17;24.54
21826;BME280;11075;47.944;11.776;2022-10-26T04:05:31;94804.56;;;19.15;24.73
21826;BME280;11075;47.944;11.776;2022-10-26T04:08:00;94810.41;;;18.85;24.65
21826;BME280;11075;47.944;11.776;2022-10-26T04:10:30;94768.19;;;16.50;27.49
21826;BME280;11075;47.944;11.776;2022-10-26T04:12:57;94784.44;;;18.04;25.94
21826;BME280;11075;47.944;11.776;2022-10-26T04:15:26;94815.88;;;19.24;24.52
21826;BME280;11075;47.944;11.776;2022-10-26T04:17:57;94803.16;;;18.09;25.77
21826;BME280;11075;47.944;11.776;2022-10-26T04:20:27;94792.59;;;17.32;26.23
21826;BME280;11075;47.944;11.776;2022-10-26T04:23:01;94780.63;;;16.92;27.43
21826;BME280;11075;47.944;11.776;2022-10-26T04:25:29;94805.38;;;17.83;25.89
21826;BME280;11075;47.944;11.776;2022-10-26T04:28:00;94831.09;;;18.93;24.88
21826;BME280;11075;47.944;11.776;2022-10-26T04:30:28;94800.28;;;17.74;26.23
21826;BME280;11075;47.944;11.776;2022-10-26T04:32:55;94775.03;;;16.74;27.62
21826;BME280;11075;47.944;11.776;2022-10-26T04:35:22;94796.28;;;18.44;25.59
21826;BME280;11075;47.944;11.776;2022-10-26T04:37:49;94818.88;;;18.41;25.02
21826;BME280;11075;47.944;11.776;2022-10-26T04:40:16;94783.47;;;17.65;26.40
21826;BME280;11075;47.944;11.776;2022-10-26T04:42:45;94825.25;;;19.45;24.28
21826;BME280;11075;47.944;11.776;2022-10-26T04:45:15;94793.69;;;17.82;26.07
21826;BME280;11075;47.944;11.776;2022-10-26T04:47:42;94815.50;;;18.94;24.79
21826;BME280;11075;47.944;11.776;2022-10-26T04:50:10;94819.78;;;18.95;24.82
21826;BME280;11075;47.944;11.776;2022-10-26T04:52:38;94812.75;;;19.12;24.77
21826;BME280;11075;47.944;11.776;2022-10-26T04:55:05;94822.50;;;19.16;24.71
21826;BME280;11075;47.944;11.776;2022-10-26T04:57:33;94836.91;;;19.74;23.86
21826;BME280;11075;47.944;11.776;2022-10-26T05:00:02;94846.28;;;19.83;23.90
21826;BME280;11075;47.944;11.776;2022-10-26T05:02:29;94863.88;;;19.18;24.52
21826;BME280;11075;47.944;11.776;2022-10-26T05:04:57;94894.72;;;19.65;24.21
21826;BME280;11075;47.944;11.776;2022-10-26T05:07:24;94852.66;;;17.53;26.94
21826;BME280;11075;47.944;11.776;2022-10-26T05:09:51;94897.81;;;19.74;24.23
21826;BME280;11075;47.944;11.776;2022-10-26T05:12:18;94890.91;;;18.33;25.77
21826;BME280;11075;47.944;11.776;2022-10-26T05:14:45;94900.91;;;18.98;25.25
21826;BME280;11075;47.944;11.776;2022-10-26T05:17:12;94834.38;;;14.96;29.88
21826;BME280;11075;47.944;11.776;2022-10-26T05:19:39;94872.75;;;16.57;28.14
21826;BME280;11075;47.944;11.776;2022-10-26T05:22:06;94904.09;;;17.62;27.19
21826;BME280;11075;47.944;11.776;2022-10-26T05:24:33;94924.13;;;17.84;26.73
21826;BME280;11075;47.944;11.776;2022-10-26T05:27:01;94936.19;;;18.52;25.78
21826;BME280;11075;47.944;11.776;2022-10-26T05:29:27;94941.97;;;17.77;26.78
21826;BME280;11075;47.944;11.776;2022-10-26T05:31:54;94949.81;;;17.86;26.73
21826;BME280;11075;47.944;11.776;2022-10-26T05:34:21;94894.44;;;15.17;29.73
21826;BME280;11075;47.944;11.776;2022-10-26T05:36:48;94947.78;;;18.31;26.00
21826;BME280;11075;47.944;11.776;2022-10-26T05:39:14;94931.88;;;17.82;26.99
21826;BME280;11075;47.944;11.776;2022-10-26T05:41:42;94899.06;;;15.89;28.98
21826;BME280;11075;47.944;11.776;2022-10-26T05:44:09;94964.97;;;19.32;24.86
21826;BME280;11075;47.944;11.776;2022-10-26T05:46:36;94928.34;;;17.74;26.85
21826;BME280;11075;47.944;11.776;2022-10-26T05:49:03;94954.47;;;18.40;25.65
21826;BME280;11075;47.944;11.776;2022-10-26T05:51:32;94935.34;;;17.31;27.33
21826;BME280;11075;47.944;11.776;2022-10-26T05:54:00;94916.78;;;17.03;28.19
21826;BME280;11075;47.944;11.776;2022-10-26T05:56:38;94920.63;;;15.78;30.02
21826;BME280;11075;47.944;11.776;2022-10-26T05:59:16;94979.03;;;17.08;27.66
21826;BME280;11075;47.944;11.776;2022-10-26T06:02:04;94911.91;;;14.20;31.51
21826;BME280;11075;47.944;11.776;2022-10-26T06:04:43;94976.66;;;17.80;26.56
21826;BME280;11075;47.944;11.776;2022-10-26T06:07:17;94988.75;;;18.38;26.02
21826;BME280;11075;47.944;11.776;2022-10-26T06:09:47;95003.78;;;18.80;25.27
21826;BME280;11075;47.944;11.776;2022-10-26T06:12:15;95007.00;;;19.03;25.25
21826;BME280;11075;47.944;11.776;2022-10-26T06:14:46;95005.19;;;17.97;26.14
21826;BME280;11075;47.944;11.776;2022-10-26T06:22:54;95000.56;;;16.27;28.95
21826;BME280;11075;47.944;11.776;2022-10-26T06:28:07;94994.81;;;16.92;28.31
21826;BME280;11075;47.944;11.776;2022-10-26T06:30:40;94999.13;;;16.96;28.33
21826;BME280;11075;47.944;11.776;2022-10-26T06:33:11;95011.13;;;17.25;27.86
21826;BME280;11075;47.944;11.776;2022-10-26T06:38:44;95039.03;;;19.20;25.56
21826;BME280;11075;47.944;11.776;2022-10-26T06:41:12;95047.41;;;19.88;24.78
21826;BME280;11075;47.944;11.776;2022-10-26T06:43:45;95029.00;;;18.59;26.25
21826;BME280;11075;47.944;11.776;2022-10-26T06:46:20;95042.16;;;19.26;25.75
21826;BME280;11075;47.944;11.776;2022-10-26T06:48:59;95042.94;;;19.23;25.32
21826;BME280;11075;47.944;11.776;2022-10-26T06:51:30;95014.25;;;18.12;27.33
21826;BME280;11075;47.944;11.776;2022-10-26T06:54:05;95030.97;;;18.65;26.28
21826;BME280;11075;47.944;11.776;2022-10-26T06:56:37;95014.00;;;17.06;28.17
21826;BME280;11075;47.944;11.776;2022-10-26T06:59:08;95025.41;;;18.48;26.81
21826;BME280;11075;47.944;11.776;2022-10-26T07:01:39;95007.66;;;18.13;26.97
21826;BME280;11075;47.944;11.776;2022-10-26T07:04:06;94996.41;;;17.30;27.94
21826;BME280;11075;47.944;11.776;2022-10-26T07:06:32;95009.63;;;18.78;26.58
21826;BME280;11075;47.944;11.776;2022-10-26T07:09:04;95054.72;;;20.97;24.55
21826;BME280;11075;47.944;11.776;2022-10-26T07:11:32;95057.31;;;21.29;23.65
21826;BME280;11075;47.944;11.776;2022-10-26T07:13:58;95012.81;;;18.94;26.43
21826;BME280;11075;47.944;11.776;2022-10-26T07:16:25;95009.50;;;18.57;27.32
21826;BME280;11075;47.944;11.776;2022-10-26T07:18:53;95012.94;;;18.43;27.64
21826;BME280;11075;47.944;11.776;2022-10-26T07:21:20;95033.06;;;18.90;26.74
21826;BME280;11075;47.944;11.776;2022-10-26T07:23:47;95064.94;;;20.76;24.72
21826;BME280;11075;47.944;11.776;2022-10-26T07:26:13;95054.84;;;20.41;25.41
21826;BME280;11075;47.944;11.776;2022-10-26T07:28:40;95052.50;;;19.96;26.09
21826;BME280;11075;47.944;11.776;2022-10-26T07:31:07;95077.91;;;21.63;23.44
21826;BME280;11075;47.944;11.776;2022-10-26T07:33:34;95003.34;;;17.24;28.70
21826;BME280;11075;47.944;11.776;2022-10-26T07:36:07;95045.03;;;19.68;25.98
21826;BME280;11075;47.944;11.776;2022-10-26T07:38:37;95053.22;;;20.68;25.00
21826;BME280;11075;47.944;11.776;2022-10-26T07:41:04;95078.63;;;21.74;24.26
21826;BME280;11075;47.944;11.776;2022-10-26T07:43:32;95074.41;;;21.62;24.32
21826;BME280;11075;47.944;11.776;2022-10-26T07:45:59;95041.16;;;20.16;26.00
21826;BME280;11075;47.944;11.776;2022-10-26T07:48:26;95050.53;;;19.86;25.97
21826;BME280;11075;47.944;11.776;2022-10-26T07:50:53;95083.22;;;21.95;23.99
21826;BME280;11075;47.944;11.776;2022-10-26T07:53:20;95038.22;;;19.16;26.52
21826;BME280;11075;47.944;11.776;2022-10-26T07:55:54;95036.03;;;19.57;26.80
21826;BME280;11075;47.944;11.776;2022-10-26T07:58:22;95003.84;;;17.73;28.39
21826;BME280;11075;47.944;11.776;2022-10-26T08:00:52;95047.41;;;20.27;25.54
21826;BME280;11075;47.944;11.776;2022-10-26T08:03:20;95035.09;;;21.10;25.14
21826;BME280;11075;47.944;11.776;2022-10-26T08:05:48;95009.09;;;19.77;26.28
21826;BME280;11075;47.944;11.776;2022-10-26T08:08:17;95016.91;;;19.79;26.11
21826;BME280;11075;47.944;11.776;2022-10-26T08:10:45;95028.47;;;21.77;24.58
21826;BME280;11075;47.944;11.776;2022-10-26T08:13:13;95026.19;;;22.20;24.34
21826;BME280;11075;47.944;11.776;2022-10-26T08:15:40;94984.09;;;20.18;26.35
21826;BME280;11075;47.944;11.776;2022-10-26T08:18:07;94997.66;;;20.78;25.68
21826;BME280;11075;47.944;11.776;2022-10-26T08:20:34;95007.16;;;20.45;25.49
21826;BME280;11075;47.944;11.776;2022-10-26T08:23:01;94987.63;;;19.79;26.94
21826;BME280;11075;47.944;11.776;2022-10-26T08:25:33;94984.47;;;19.31;27.75
21826;BME280;11075;47.944;11.776;2022-10-26T08:28:01;95000.00;;;20.76;25.96
21826;BME280;11075;47.944;11.776;2022-10-26T08:30:32;94991.94;;;20.01;26.71
21826;BME280;11075;47.944;11.776;2022-10-26T08:33:02;94997.38;;;20.44;26.41
21826;BME280;11075;47.944;11.776;2022-10-26T08:35:30;94994.66;;;20.16;26.59
21826;BME280;11075;47.944;11.776;2022-10-26T08:37:58;95010.34;;;21.35;25.57
21826;BME280;11075;47.944;11.776;2022-10-26T08:40:30;95012.34;;;21.89;24.92
21826;BME280;11075;47.944;11.776;2022-10-26T08:43:28;95029.59;;;21.17;25.35
21826;BME280;11075;47.944;11.776;2022-10-26T08:46:04;95018.06;;;20.52;26.36
21826;BME280;11075;47.944;11.776;2022-10-26T08:48:37;95011.44;;;21.48;25.32
21826;BME280;11075;47.944;11.776;2022-10-26T08:51:11;95002.72;;;20.87;26.52
21826;BME280;11075;47.944;11.776;2022-10-26T08:53:49;95037.44;;;22.77;24.51
21826;BME280;11075;47.944;11.776;2022-10-26T08:56:22;95043.75;;;22.71;24.34
21826;BME280;11075;47.944;11.776;2022-10-26T08:59:04;95028.09;;;22.30;24.53
21826;BME280;11075;47.944;11.776;2022-10-26T09:01:33;95019.94;;;22.19;25.18
21826;BME280;11075;47.944;11.776;2022-10-26T09:04:01;95034.56;;;22.02;24.55
21826;BME280;11075;47.944;11.776;2022-10-26T09:06:53;95048.72;;;22.86;23.82
21826;BME280;11075;47.944;11.776;2022-10-26T09:09:37;95045.16;;;23.24;23.62
21826;BME280;11075;47.944;11.776;2022-10-26T09:15:12;95063.88;;;23.90;22.97
21826;BME280;11075;47.944;11.776;2022-10-26T09:18:15;95036.19;;;23.16;24.08
21826;BME280;11075;47.944;11.776;2022-10-26T09:25:54;95078.84;;;26.01;21.49
21826;BME280;11075;47.944;11.776;2022-10-26T09:28:26;95019.94;;;22.61;24.93
21826;BME280;11075;47.944;11.776;2022-10-26T09:30:56;95067.47;;;25.23;21.48
21826;BME280;11075;47.944;11.776;2022-10-26T09:33:24;95053.31;;;24.62;22.59
21826;BME280;11075;47.944;11.776;2022-10-26T09:36:01;95044.16;;;25.28;22.59
21826;BME280;11075;47.944;11.776;2022-10-26T09:38:35;95050.47;;;25.64;22.04
21826;BME280;11075;47.944;11.776;2022-10-26T09:43:55;95066.31;;;25.96;21.11
21826;BME280;11075;47.944;11.776;2022-10-26T09:46:27;95069.09;;;26.13;21.28
21826;BME280;11075;47.944;11.776;2022-10-26T09:48:59;95066.25;;;27.23;20.36
21826;BME280;11075;47.944;11.776;2022-10-26T09:51:35;95052.88;;;25.62;21.72
21826;BME280;11075;47.944;11.776;2022-10-26T09:54:13;95068.03;;;25.34;21.30
21826;BME280;11075;47.944;11.776;2022-10-26T09:56:42;95042.69;;;25.03;23.19
21826;BME280;11075;47.944;11.776;2022-10-26T09:59:11;95059.94;;;25.99;22.24
21826;BME280;11075;47.944;11.776;2022-10-26T10:01:38;95070.31;;;25.20;22.12
21826;BME280;11075;47.944;11.776;2022-10-26T10:06:51;95089.94;;;27.24;20.92
21826;BME280;11075;47.944;11.776;2022-10-26T10:09:20;95088.91;;;27.59;21.20
21826;BME280;11075;47.944;11.776;2022-10-26T10:11:58;95061.63;;;25.21;22.88
21826;BME280;11075;47.944;11.776;2022-10-26T10:14:56;95106.56;;;27.91;20.77
21826;BME280;11075;47.944;11.776;2022-10-26T10:17:24;95140.63;;;26.23;19.11
21826;BME280;11075;47.944;11.776;2022-10-26T10:19:52;95128.25;;;22.52;21.08
21826;BME280;11075;47.944;11.776;2022-10-26T10:22:23;95114.63;;;23.24;21.24
21826;BME280;11075;47.944;11.776;2022-10-26T10:25:00;95154.88;;;25.66;19.06
21826;BME280;11075;47.944;11.776;2022-10-26T10:27:29;95174.81;;;26.62;17.96
21826;BME280;11075;47.944;11.776;2022-10-26T10:30:03;95171.72;;;27.67;17.82
21826;BME280;11075;47.944;11.776;2022-10-26T10:32:39;95175.00;;;26.02;18.38
21826;BME280;11075;47.944;11.776;2022-10-26T10:35:22;95199.72;;;24.57;17.89
21826;BME280;11075;47.944;11.776;2022-10-26T10:37:50;95145.06;;;24.78;20.56
21826;BME280;11075;47.944;11.776;2022-10-26T10:40:22;95133.06;;;22.86;20.64
21826;BME280;11075;47.944;11.776;2022-10-26T10:42:52;95132.13;;;22.59;21.05
21826;BME280;11075;47.944;11.776;2022-10-26T10:45:23;95144.19;;;23.47;20.57
21826;BME280;11075;47.944;11.776;2022-10-26T10:48:18;95124.75;;;22.93;20.80
21826;BME280;11075;47.944;11.776;2022-10-26T10:51:00;95165.03;;;26.25;18.44
21826;BME280;11075;47.944;11.776;2022-10-26T10:56:40;95152.28;;;22.90;20.07
21826;BME280;11075;47.944;11.776;2022-10-26T10:59:29;95154.53;;;24.00;19.99
21826;BME280;11075;47.944;11.776;2022-10-26T11:07:41;95141.16;;;23.00;20.71
21826;BME280;11075;47.944;11.776;2022-10-26T11:10:12;95155.94;;;26.44;19.03
21826;BME280;11075;47.944;11.776;2022-10-26T11:12:54;95157.41;;;24.94;19.67
21826;BME280;11075;47.944;11.776;2022-10-26T11:15:25;95144.59;;;25.07;19.60
21826;BME280;11075;47.944;11.776;2022-10-26T11:18:06;95155.50;;;23.18;20.47
21826;BME280;11075;47.944;11.776;2022-10-26T11:20:39;95151.34;;;23.41;20.66
21826;BME280;11075;47.944;11.776;2022-10-26T11:23:21;95115.81;;;21.85;22.71
21826;BME280;11075;47.944;11.776;2022-10-26T11:25:58;95149.34;;;25.03;19.68
21826;BME280;11075;47.944;11.776;2022-10-26T11:31:18;95123.34;;;23.49;21.26
21826;BME280;11075;47.944;11.776;2022-10-26T11:34:09;95158.47;;;25.43;19.72
21826;BME280;11075;47.944;11.776;2022-10-26T11:36:39;95149.56;;;25.35;19.51
21826;BME280;11075;47.944;11.776;2022-10-26T11:39:19;95163.28;;;26.15;18.92
21826;BME280;11075;47.944;11.776;2022-10-26T11:47:51;95156.53;;;23.96;20.51
21826;BME280;11075;47.944;11.776;2022-10-26T11:50:28;95139.75;;;24.18;20.81
21826;BME280;11075;47.944;11.776;2022-10-26T11:53:14;95147.75;;;25.05;20.38
21826;BME280;11075;47.944;11.776;2022-10-26T11:55:51;95172.41;;;26.48;18.95
21826;BME280;11075;47.944;11.776;2022-10-26T11:58:22;95160.59;;;26.47;19.34
21826;BME280;11075;47.944;11.776;2022-10-26T12:00:57;95164.09;;;25.16;20.09
21826;BME280;11075;47.944;11.776;2022-10-26T12:03:34;95179.88;;;25.16;19.12
21826;BME280;11075;47.944;11.776;2022-10-26T12:06:03;95185.72;;;26.53;18.59
21826;BME280;11075;47.944;11.776;2022-10-26T12:08:36;95184.81;;;27.79;18.21
21826;BME280;11075;47.944;11.776;2022-10-26T12:14:57;95201.19;;;26.83;18.08
21826;BME280;11075;47.944;11.776;2022-10-26T12:20:33;95184.63;;;27.28;19.01
21826;BME280;11075;47.944;11.776;2022-10-26T12:23:08;95181.53;;;24.63;20.09
21826;BME280;11075;47.944;11.776;2022-10-26T12:25:39;95181.13;;;24.37;20.72
21826;BME280;11075;47.944;11.776;2022-10-26T12:34:15;95195.97;;;25.60;19.56
21826;BME280;11075;47.944;11.776;2022-10-26T13:03:34;95172.91;;;24.07;21.95
21826;BME280;11075;47.944;11.776;2022-10-26T13:08:55;95213.59;;;25.23;20.20
21826;BME280;11075;47.944;11.776;2022-10-26T13:11:34;95196.63;;;25.45;21.36
21826;BME280;11075;47.944;11.776;2022-10-26T13:14:06;95214.53;;;27.33;19.49
21826;BME280;11075;47.944;11.776;2022-10-26T13:16:35;95212.00;;;25.85;20.70
21826;BME280;11075;47.944;11.776;2022-10-26T13:19:02;95215.38;;;25.33;20.21
21826;BME280;11075;47.944;11.776;2022-10-26T13:21:29;95200.81;;;25.33;20.56
21826;BME280;11075;47.944;11.776;2022-10-26T13:23:57;95189.03;;;25.92;20.89
21826;BME280;11075;47.944;11.776;2022-10-26T13:26:32;95195.69;;;25.55;21.27
21826;BME280;11075;47.944;11.776;2022-10-26T13:29:18;95193.94;;;26.20;21.08
21826;BME280;11075;47.944;11.776;2022-10-26T13:34:16;95215.06;;;26.95;20.07
21826;BME280;11075;47.944;11.776;2022-10-26T13:37:10;95214.88;;;27.19;20.36
21826;BME280;11075;47.944;11.776;2022-10-26T13:39:41;95211.84;;;26.48;21.14
21826;BME280;11075;47.944;11.776;2022-10-26T13:42:17;95204.06;;;25.28;22.14
21826;BME280;11075;47.944;11.776;2022-10-26T13:44:55;95198.28;;;25.42;21.91
21826;BME280;11075;47.944;11.776;2022-10-26T13:47:27;95188.13;;;25.16;22.36
21826;BME280;11075;47.944;11.776;2022-10-26T13:49:59;95205.13;;;26.13;21.29
21826;BME280;11075;47.944;11.776;2022-10-26T13:52:40;95198.00;;;25.96;21.71
21826;BME280;11075;47.944;11.776;2022-10-26T14:00:36;95209.59;;;26.07;21.45
21826;BME280;11075;47.944;11.776;2022-10-26T14:03:17;95209.34;;;26.38;21.25
21826;BME280;11075;47.944;11.776;2022-10-26T14:05:45;95215.84;;;25.91;21.64
21826;BME280;11075;47.944;11.776;2022-10-26T14:08:16;95214.19;;;26.66;21.48
21826;BME280;11075;47.944;11.776;2022-10-26T14:10:55;95221.63;;;27.02;21.09
21826;BME280;11075;47.944;11.776;2022-10-26T14:13:24;95232.00;;;27.59;20.46
21826;BME280;11075;47.944;11.776;2022-10-26T14:15:53;95236.22;;;27.18;20.56
21826;BME280;11075;47.944;11.776;2022-10-26T14:18:26;95235.19;;;27.57;19.87
21826;BME280;11075;47.944;11.776;2022-10-26T14:23:26;95224.97;;;26.44;21.50
21826;BME280;11075;47.944;11.776;2022-10-26T14:25:54;95185.69;;;24.47;23.77
21826;BME280;11075;47.944;11.776;2022-10-26T14:28:29;95197.75;;;24.00;23.68
21826;BME280;11075;47.944;11.776;2022-10-26T14:31:20;95251.78;;;27.57;20.65
21826;BME280;11075;47.944;11.776;2022-10-26T14:33:48;95252.81;;;27.92;20.22
21826;BME280;11075;47.944;11.776;2022-10-26T14:36:16;95236.50;;;27.53;21.37
21826;BME280;11075;47.944;11.776;2022-10-26T14:38:48;95234.41;;;26.63;21.27
21826;BME280;11075;47.944;11.776;2022-10-26T14:41:16;95250.59;;;27.87;21.02
21826;BME280;11075;47.944;11.776;2022-10-26T14:43:44;95240.03;;;27.24;21.38
21826;BME280;11075;47.944;11.776;2022-10-26T14:46:14;95230.63;;;27.06;21.99
21826;BME280;11075;47.944;11.776;2022-10-26T14:48:56;95248.22;;;27.44;21.27
21826;BME280;11075;47.944;11.776;2022-10-26T14:51:26;95243.81;;;27.30;21.25
21826;BME280;11075;47.944;11.776;2022-10-26T14:53:56;95256.28;;;26.38;21.69
21826;BME280;11075;47.944;11.776;2022-10-26T14:59:21;95258.44;;;27.60;20.50
21826;BME280;11075;47.944;11.776;2022-10-26T15:01:54;95252.97;;;27.44;21.02
21826;BME280;11075;47.944;11.776;2022-10-26T15:04:33;95222.88;;;25.33;23.33
21826;BME280;11075;47.944;11.776;2022-10-26T15:09:42;95256.25;;;26.57;21.72
21826;BME280;11075;47.944;11.776;2022-10-26T15:12:31;95254.75;;;26.17;21.98
21826;BME280;11075;47.944;11.776;2022-10-26T15:17:38;95227.25;;;24.57;23.89
21826;BME280;11075;47.944;11.776;2022-10-26T15:20:14;95265.72;;;26.20;21.95
21826;BME280;11075;47.944;11.776;2022-10-26T15:22:42;95260.19;;;26.20;22.43
21826;BME280;11075;47.944;11.776;2022-10-26T15:25:20;95266.50;;;26.01;21.98
21826;BME280;11075;47.944;11.776;2022-10-26T15:27:49;95274.13;;;26.33;22.06
21826;BME280;11075;47.944;11.776;2022-10-26T15:30:26;95277.28;;;26.51;22.15